Carrollwood, Florida
Current Conditions -  °F | °C
As of 3:53 PM on Thursday 18 Dec 2014 (Local Time) from KTPA Reporting Station
Clear Clear  
Wind Chill: 67°   Ceiling: Unl
Heat Index: 67°   Visibility: 10mi
Dew Point: 53°   Wind: 10mph
Humidity: 61%   Direction: 270°W
Pressure: 30.1"   Gusts: NA
Location:  28.0718°N, 82.5592°W
Report Text: KTPA 182053Z 27009KT 10SM CLR 19/12 A3010 RMK AO2 SLP193 T01940117 56022
Loading
Personal Weather Stations






























Interactive Weather Map New forecast layout! Learn more

10-Day Weather Forecast

Advertisements
Track Severe Weather on mobile